Time;durP1;ratioP1;P1;durP2;ratioP2;P2;SDS_P1;SDS_P2;PMS_P1;PMS_P2;Temp;Humidity;BMP_temperature;BMP_pressure;BME280_temperature;BME280_humidity;BME280_pressure;Samples;Min_cycle;Max_cycle;Signal;HPM_P1;HPM_P2
2021/12/13 00:01:44;;;;;;;12.43;7.47;;;8.50;99.90;;;;;;5036683;28;20576;-76
2021/12/13 00:04:48;;;;;;;11.70;6.07;;;8.50;99.90;;;;;;5038664;28;20409;-77
2021/12/13 00:07:21;;;;;;;8.60;5.97;;;8.50;99.90;;;;;;5024959;28;20425;-76
2021/12/13 00:09:50;;;;;;;10.23;6.80;;;8.50;99.90;;;;;;5036142;28;20417;-77
2021/12/13 00:12:35;;;;;;;7.63;5.77;;;8.50;99.90;;;;;;5017304;28;20457;-75
2021/12/13 00:15:12;;;;;;;8.17;5.97;;;8.50;99.90;;;;;;5019411;28;20551;-76
2021/12/13 00:17:43;;;;;;;11.43;5.40;;;8.50;99.90;;;;;;5035520;28;20855;-76
2021/12/13 00:20:27;;;;;;;11.63;4.90;;;8.50;99.90;;;;;;5035186;28;20413;-76
2021/12/13 00:23:03;;;;;;;6.60;5.20;;;8.50;99.90;;;;;;5034094;28;20437;-76
2021/12/13 00:25:30;;;;;;;13.10;6.17;;;8.50;99.90;;;;;;5033540;28;20401;-76
2021/12/13 00:28:05;;;;;;;10.53;6.40;;;8.50;99.90;;;;;;5015515;28;20499;-76
2021/12/13 00:30:59;;;;;;;8.20;5.40;;;8.50;99.90;;;;;;5034303;28;20913;-76
2021/12/13 00:33:36;;;;;;;7.77;5.33;;;8.50;99.90;;;;;;5033726;28;20978;-77
2021/12/13 00:36:36;;;;;;;10.60;6.40;;;8.50;99.90;;;;;;5016238;28;20408;-76
2021/12/13 00:39:19;;;;;;;10.70;6.00;;;8.50;99.90;;;;;;4998850;28;20409;-78
2021/12/13 00:41:47;;;;;;;8.20;5.70;;;8.50;99.90;;;;;;4998789;28;20433;-76
2021/12/13 00:44:35;;;;;;;6.13;5.10;;;8.50;99.90;;;;;;5034146;28;20849;-78
2021/12/13 00:47:10;;;;;;;7.93;4.87;;;8.50;99.90;;;;;;5015341;28;20421;-77
2021/12/13 00:49:39;;;;;;;8.73;5.70;;;8.50;99.90;;;;;;5033441;28;20431;-76
2021/12/13 00:52:05;;;;;;;10.13;6.07;;;8.60;99.90;;;;;;5032995;28;20508;-78
2021/12/13 00:54:35;;;;;;;12.67;5.57;;;8.60;99.90;;;;;;5032569;28;20461;-77
2021/12/13 00:57:04;;;;;;;9.13;5.57;;;8.60;99.90;;;;;;5015758;28;20405;-77
2021/12/13 00:59:48;;;;;;;9.37;5.23;;;8.60;99.90;;;;;;5033876;28;20466;-76
2021/12/13 01:02:17;;;;;;;8.30;6.67;;;8.60;99.90;;;;;;5033583;28;20457;-77
2021/12/13 01:05:05;;;;;;;11.13;4.93;;;8.50;99.90;;;;;;5015176;28;20475;-76
2021/12/13 01:07:58;;;;;;;6.57;4.70;;;8.50;99.90;;;;;;5015423;28;20504;-77
2021/12/13 01:10:41;;;;;;;8.17;5.10;;;8.50;99.90;;;;;;4998817;28;20409;-77
2021/12/13 01:13:16;;;;;;;7.30;5.23;;;8.40;99.90;;;;;;5014094;28;20453;-76
2021/12/13 01:15:51;;;;;;;14.43;5.27;;;8.40;99.90;;;;;;5014898;28;20421;-76
2021/12/13 01:18:27;;;;;;;6.57;4.40;;;8.40;99.90;;;;;;5032922;28;20927;-75
2021/12/13 01:21:12;;;;;;;7.10;5.07;;;8.40;99.90;;;;;;5032223;28;20409;-75
2021/12/13 01:23:46;;;;;;;8.37;5.17;;;8.30;99.90;;;;;;5014158;28;20443;-75
2021/12/13 01:26:37;;;;;;;6.97;5.07;;;8.30;99.90;;;;;;5031938;28;20416;-76
2021/12/13 01:29:15;;;;;;;8.00;4.70;;;8.30;99.90;;;;;;5014417;28;20428;-76
2021/12/13 01:31:49;;;;;;;6.73;5.33;;;8.30;99.90;;;;;;4997015;28;20445;-76
2021/12/13 01:34:17;;;;;;;8.33;4.93;;;8.30;99.90;;;;;;5014295;28;20463;-76
2021/12/13 01:36:53;;;;;;;6.30;4.93;;;8.30;99.90;;;;;;5032117;28;20444;-77
2021/12/13 01:39:25;;;;;;;6.87;4.47;;;8.30;99.90;;;;;;5016797;28;20412;-75
2021/12/13 01:41:58;;;;;;;9.20;6.93;;;8.30;99.90;;;;;;5031849;28;20467;-76
2021/12/13 01:44:30;;;;;;;12.50;4.30;;;8.30;99.90;;;;;;5014498;28;20428;-76
2021/12/13 01:47:03;;;;;;;7.20;4.43;;;8.30;99.90;;;;;;5031617;28;20919;-76
2021/12/13 01:49:54;;;;;;;8.70;4.00;;;8.30;99.90;;;;;;5032225;28;20408;-76
2021/12/13 01:52:27;;;;;;;7.97;5.13;;;8.30;99.90;;;;;;5031358;28;20523;-75
2021/12/13 01:54:59;;;;;;;6.90;3.90;;;8.20;99.90;;;;;;5014124;28;20538;-76
2021/12/13 01:57:40;;;;;;;6.73;4.40;;;8.20;99.90;;;;;;5013696;28;20424;-76
2021/12/13 02:00:18;;;;;;;7.00;3.73;;;8.20;99.90;;;;;;5031672;28;20407;-75
2021/12/13 02:02:48;;;;;;;7.37;4.70;;;8.20;99.90;;;;;;4997074;28;20436;-75
2021/12/13 02:05:19;;;;;;;7.63;4.20;;;8.20;99.90;;;;;;5031418;28;20409;-75
2021/12/13 02:07:54;;;;;;;6.20;4.30;;;8.30;99.90;;;;;;5013569;28;20427;-76
2021/12/13 02:10:29;;;;;;;6.80;4.17;;;8.30;99.90;;;;;;5014241;28;20815;-77
2021/12/13 02:12:59;;;;;;;5.30;3.90;;;8.30;99.90;;;;;;5030978;28;20456;-77
2021/12/13 02:18:21;;;;;;;6.87;4.40;;;8.20;99.90;;;;;;5031366;28;20496;-76
2021/12/13 02:21:02;;;;;;;7.37;4.30;;;8.20;99.90;;;;;;5031496;28;20409;-77
2021/12/13 02:23:28;;;;;;;6.57;4.20;;;8.20;99.90;;;;;;5013649;28;20436;-75
2021/12/13 02:25:55;;;;;;;9.80;4.53;;;8.20;99.90;;;;;;4998345;28;20420;-76
2021/12/13 02:28:29;;;;;;;5.23;3.97;;;8.20;99.90;;;;;;5032073;28;20409;-76
2021/12/13 02:31:03;;;;;;;9.30;4.63;;;8.20;99.90;;;;;;4998507;28;21004;-76
2021/12/13 02:33:36;;;;;;;7.43;4.43;;;8.20;99.90;;;;;;5014407;28;20440;-76
2021/12/13 02:36:10;;;;;;;5.77;3.80;;;8.30;99.90;;;;;;5031667;28;20441;-76
2021/12/13 02:38:38;;;;;;;7.30;4.40;;;8.30;99.90;;;;;;5032466;28;20401;-76
2021/12/13 02:41:07;;;;;;;7.53;4.53;;;8.20;99.90;;;;;;5040488;28;20409;-75
2021/12/13 02:43:38;;;;;;;6.03;4.00;;;8.20;99.90;;;;;;5040238;28;20729;-76
2021/12/13 02:46:05;;;;;;;8.87;6.03;;;8.20;99.90;;;;;;5022475;28;20413;-76
2021/12/13 02:48:30;;;;;;;6.07;4.00;;;8.30;99.90;;;;;;5019859;28;20536;-77
2021/12/13 02:51:02;;;;;;;7.50;4.60;;;8.30;99.90;;;;;;5035891;28;20516;-76
2021/12/13 02:53:34;;;;;;;5.17;3.17;;;8.30;99.90;;;;;;5035458;28;20559;-77
2021/12/13 02:56:00;;;;;;;4.67;3.83;;;8.30;99.90;;;;;;5036213;28;20500;-77
2021/12/13 02:58:29;;;;;;;8.13;4.47;;;8.30;99.90;;;;;;5036370;28;20940;-76
2021/12/13 03:01:08;;;;;;;4.60;3.10;;;8.30;99.90;;;;;;5017676;28;20748;-77
2021/12/13 03:03:38;;;;;;;5.53;3.73;;;8.30;99.90;;;;;;5019053;28;20412;-75
2021/12/13 03:06:07;;;;;;;6.30;3.80;;;8.30;99.90;;;;;;5036083;28;20470;-77
2021/12/13 03:08:38;;;;;;;5.23;3.57;;;8.30;99.90;;;;;;5036276;28;20413;-76
2021/12/13 03:11:10;;;;;;;5.33;4.00;;;8.30;99.90;;;;;;5036180;28;20991;-76
2021/12/13 03:13:36;;;;;;;5.53;3.93;;;8.30;99.90;;;;;;5040364;28;20467;-77
2021/12/13 03:16:14;;;;;;;6.20;3.60;;;8.30;99.90;;;;;;5023641;28;20416;-75
2021/12/13 03:19:06;;;;;;;4.80;4.00;;;8.30;99.90;;;;;;5019396;28;20474;-77
2021/12/13 03:22:13;;;;;;;5.03;3.37;;;8.30;99.90;;;;;;5034988;28;20432;-76
2021/12/13 03:24:48;;;;;;;4.43;2.80;;;8.30;99.90;;;;;;5017468;28;20413;-77
2021/12/13 03:27:36;;;;;;;6.20;3.83;;;8.30;99.90;;;;;;5017548;28;20786;-76
2021/12/13 03:30:14;;;;;;;4.90;3.37;;;8.30;99.90;;;;;;5017735;28;20409;-77
2021/12/13 03:32:51;;;;;;;6.47;3.23;;;8.30;99.90;;;;;;5034803;28;20520;-77
2021/12/13 03:35:44;;;;;;;5.30;4.10;;;8.30;99.90;;;;;;5002676;28;20428;-76
2021/12/13 03:38:38;;;;;;;7.27;3.53;;;8.30;99.90;;;;;;5038877;28;20455;-77
2021/12/13 03:41:08;;;;;;;7.30;3.50;;;8.40;99.90;;;;;;5015637;28;20460;-77
2021/12/13 03:43:46;;;;;;;4.07;2.60;;;8.40;99.90;;;;;;5034741;28;20420;-77
2021/12/13 03:46:15;;;;;;;3.57;2.87;;;8.40;99.90;;;;;;5034279;28;20413;-77
2021/12/13 03:48:43;;;;;;;4.47;2.60;;;8.40;99.90;;;;;;5016733;28;20409;-77
2021/12/13 03:51:14;;;;;;;4.60;3.23;;;8.40;99.90;;;;;;5035449;28;20413;-76
2021/12/13 03:53:44;;;;;;;5.17;2.70;;;8.40;99.90;;;;;;5034165;28;20813;-76
2021/12/13 03:56:13;;;;;;;3.53;2.60;;;8.40;99.90;;;;;;5033937;28;20405;-76
2021/12/13 03:58:44;;;;;;;5.90;3.10;;;8.40;99.90;;;;;;5015403;28;20764;-75
2021/12/13 04:01:14;;;;;;;3.57;3.00;;;8.40;99.90;;;;;;4999567;28;20419;-77
2021/12/13 04:03:43;;;;;;;4.40;2.53;;;8.40;99.90;;;;;;5016092;28;20963;-75
2021/12/13 04:06:14;;;;;;;5.83;3.00;;;8.40;99.90;;;;;;5015650;28;20417;-75
2021/12/13 04:08:42;;;;;;;3.93;3.20;;;8.40;99.90;;;;;;5033554;28;20989;-76
2021/12/13 04:11:10;;;;;;;4.43;2.93;;;8.40;99.90;;;;;;5015525;28;20429;-77
2021/12/13 04:13:46;;;;;;;4.80;2.70;;;8.40;99.90;;;;;;5033187;28;20443;-77
2021/12/13 04:16:36;;;;;;;6.20;3.27;;;8.40;99.90;;;;;;5015716;28;20419;-76
2021/12/13 04:19:09;;;;;;;3.80;2.80;;;8.40;99.90;;;;;;5033166;28;20467;-76
2021/12/13 04:21:58;;;;;;;5.10;3.43;;;8.40;99.90;;;;;;5033260;28;20425;-76
2021/12/13 04:24:29;;;;;;;4.10;2.93;;;8.40;99.90;;;;;;5033321;28;20447;-76
2021/12/13 04:27:00;;;;;;;3.60;2.67;;;8.40;99.90;;;;;;5033243;28;20417;-76
2021/12/13 04:29:30;;;;;;;5.43;2.70;;;8.40;99.90;;;;;;5016159;28;20441;-77
2021/12/13 04:31:58;;;;;;;4.40;2.70;;;8.40;99.90;;;;;;5033780;28;20942;-77
2021/12/13 04:34:26;;;;;;;9.90;3.13;;;8.50;99.90;;;;;;5034169;28;20862;-77
2021/12/13 04:36:58;;;;;;;5.40;3.13;;;8.50;99.90;;;;;;5016731;28;20934;-77
2021/12/13 04:39:27;;;;;;;7.60;2.97;;;8.50;99.90;;;;;;5016442;28;20429;-77
2021/12/13 04:42:04;;;;;;;5.63;2.40;;;8.50;99.90;;;;;;5018321;28;20460;-78
2021/12/13 04:45:02;;;;;;;4.23;2.80;;;8.50;99.90;;;;;;5034067;28;20407;-76
2021/12/13 04:47:45;;;;;;;4.33;2.77;;;8.50;99.90;;;;;;5021917;28;20793;-76
2021/12/13 04:50:29;;;;;;;4.97;2.43;;;8.50;99.90;;;;;;5041686;28;20428;-76
2021/12/13 04:52:57;;;;;;;3.83;3.30;;;8.50;99.90;;;;;;5027155;28;20437;-77
2021/12/13 04:55:29;;;;;;;5.60;3.43;;;8.50;99.90;;;;;;5041499;28;20413;-76
2021/12/13 04:57:58;;;;;;;4.37;2.93;;;8.50;99.90;;;;;;5018367;28;20496;-77
2021/12/13 05:00:29;;;;;;;6.23;2.80;;;8.50;99.90;;;;;;5002153;28;20453;-76
2021/12/13 05:02:58;;;;;;;5.50;3.10;;;8.50;99.90;;;;;;5035996;28;20444;-76
2021/12/13 05:05:25;;;;;;;4.60;3.27;;;8.50;99.90;;;;;;5015331;28;20508;-75
2021/12/13 05:07:52;;;;;;;6.10;2.93;;;8.50;99.90;;;;;;5032345;28;20412;-75
2021/12/13 05:10:19;;;;;;;5.20;2.80;;;8.50;99.90;;;;;;5014263;28;20441;-77
2021/12/13 05:13:05;;;;;;;3.63;2.67;;;8.50;99.90;;;;;;5052076;22;20507;-74
2021/12/13 05:15:33;;;;;;;7.27;3.53;;;8.50;99.90;;;;;;5032795;28;20461;-74
2021/12/13 05:18:04;;;;;;;5.73;2.37;;;8.40;99.90;;;;;;5014911;28;20783;-74
2021/12/13 05:20:37;;;;;;;3.10;2.53;;;8.40;99.90;;;;;;5015442;28;20401;-74
2021/12/13 05:23:10;;;;;;;3.40;2.50;;;8.40;99.90;;;;;;5017903;28;20930;-75
2021/12/13 05:25:51;;;;;;;5.90;2.87;;;8.40;99.90;;;;;;5019541;28;20600;-74
2021/12/13 05:28:20;;;;;;;3.23;2.70;;;8.40;99.90;;;;;;5018227;28;20417;-74
2021/12/13 05:30:57;;;;;;;3.53;2.90;;;8.40;99.90;;;;;;5036987;28;20830;-75
2021/12/13 05:33:27;;;;;;;4.70;2.73;;;8.40;99.90;;;;;;4998741;28;20452;-74
2021/12/13 05:35:57;;;;;;;8.30;2.50;;;8.40;99.90;;;;;;4998820;28;20424;-75
2021/12/13 05:38:35;;;;;;;5.77;3.17;;;8.40;99.90;;;;;;5032712;28;20533;-74
2021/12/13 05:41:07;;;;;;;4.53;2.93;;;8.40;99.90;;;;;;5032414;28;20891;-74
2021/12/13 05:43:42;;;;;;;4.43;2.87;;;8.40;99.90;;;;;;5032320;28;20429;-74
2021/12/13 05:46:20;;;;;;;4.53;2.50;;;8.40;99.90;;;;;;5014458;28;20413;-74
2021/12/13 05:48:49;;;;;;;5.03;2.77;;;8.40;99.90;;;;;;5015282;28;20401;-76
2021/12/13 05:51:28;;;;;;;4.50;2.70;;;8.40;99.90;;;;;;5033043;28;20400;-74
2021/12/13 05:54:10;;;;;;;5.10;2.93;;;8.40;99.90;;;;;;5033305;28;20464;-75
2021/12/13 05:56:45;;;;;;;4.47;2.80;;;8.40;99.90;;;;;;5014626;28;20447;-74
2021/12/13 05:59:35;;;;;;;5.00;3.10;;;8.40;99.90;;;;;;5033194;28;20440;-74
2021/12/13 06:02:18;;;;;;;7.50;2.70;;;8.40;99.90;;;;;;5014331;28;20956;-74
2021/12/13 06:05:11;;;;;;;5.10;3.83;;;8.40;99.90;;;;;;4998067;28;20950;-74
2021/12/13 06:07:40;;;;;;;8.80;3.90;;;8.40;99.90;;;;;;5032655;28;20417;-74
2021/12/13 06:10:15;;;;;;;5.93;3.43;;;8.40;99.90;;;;;;5015110;28;20911;-74
2021/12/13 06:13:23;;;;;;;4.73;3.53;;;8.40;99.90;;;;;;5032136;28;20440;-74
2021/12/13 06:15:50;;;;;;;3.10;2.50;;;8.40;99.90;;;;;;4958600;28;20792;-76
2021/12/13 06:18:18;;;;;;;4.23;2.87;;;8.40;99.90;;;;;;4973493;28;20442;-73
2021/12/13 06:20:53;;;;;;;3.60;2.93;;;8.40;99.90;;;;;;5012265;28;20417;-74
2021/12/13 06:23:23;;;;;;;4.87;2.93;;;8.40;99.90;;;;;;5010410;28;20503;-75
2021/12/13 06:25:55;;;;;;;5.20;3.80;;;8.40;99.90;;;;;;4995053;28;20414;-75
2021/12/13 06:28:27;;;;;;;4.60;3.07;;;8.40;99.90;;;;;;5007212;28;20438;-74
2021/12/13 06:30:59;;;;;;;4.70;2.90;;;8.40;99.90;;;;;;5001705;28;20650;-75
2021/12/13 06:33:25;;;;;;;5.80;2.67;;;8.40;99.90;;;;;;4980038;28;20545;-74
2021/12/13 06:36:01;;;;;;;5.23;3.00;;;8.30;99.90;;;;;;5001330;28;20792;-74
2021/12/13 06:38:39;;;;;;;6.80;3.30;;;8.30;99.90;;;;;;4991657;28;21151;-75
2021/12/13 06:41:12;;;;;;;5.20;3.07;;;8.30;99.90;;;;;;4996217;28;20435;-74
2021/12/13 06:43:53;;;;;;;3.27;2.23;;;8.30;99.90;;;;;;5011780;28;20900;-75
2021/12/13 06:46:25;;;;;;;5.43;3.33;;;8.30;99.90;;;;;;4993463;28;20750;-74
2021/12/13 06:48:58;;;;;;;6.20;2.90;;;8.30;99.90;;;;;;4979471;28;20794;-74
2021/12/13 06:51:40;;;;;;;7.27;3.70;;;8.30;99.90;;;;;;4995343;28;20439;-74
2021/12/13 06:54:28;;;;;;;4.50;2.90;;;8.30;99.90;;;;;;4996058;28;20466;-75
2021/12/13 06:57:00;;;;;;;4.37;2.90;;;8.30;99.90;;;;;;4992451;28;20514;-74
2021/12/13 06:59:27;;;;;;;5.07;3.53;;;8.30;99.90;;;;;;4992803;28;20421;-73
2021/12/13 07:02:01;;;;;;;4.73;3.00;;;8.30;99.90;;;;;;5010108;28;20492;-73
2021/12/13 07:04:57;;;;;;;5.27;3.47;;;8.30;99.90;;;;;;4979194;28;20458;-73
2021/12/13 07:07:39;;;;;;;4.23;3.47;;;8.30;99.90;;;;;;4994120;28;20429;-73
2021/12/13 07:10:16;;;;;;;5.07;3.33;;;8.30;99.90;;;;;;4992530;28;20839;-76
2021/12/13 07:12:52;;;;;;;8.57;3.40;;;8.30;99.90;;;;;;5003315;28;20450;-74
2021/12/13 07:15:38;;;;;;;4.67;3.07;;;8.30;99.90;;;;;;5010346;28;20454;-74
2021/12/13 07:18:21;;;;;;;5.77;3.70;;;8.30;99.90;;;;;;4975296;28;20443;-74
2021/12/13 07:21:14;;;;;;;5.77;3.40;;;8.30;99.90;;;;;;4976966;28;20430;-71
2021/12/13 07:24:05;;;;;;;4.97;2.93;;;8.30;99.90;;;;;;4984804;28;20438;-72
2021/12/13 07:26:58;;;;;;;5.13;3.30;;;8.30;99.90;;;;;;4980855;28;20928;-71
2021/12/13 07:29:42;;;;;;;3.80;2.90;;;8.40;99.90;;;;;;4996288;28;20426;-74
2021/12/13 07:32:22;;;;;;;5.50;3.03;;;8.40;99.90;;;;;;4997104;28;20489;-73
2021/12/13 07:35:00;;;;;;;4.27;2.83;;;8.40;99.90;;;;;;5016147;28;20465;-72
2021/12/13 07:37:49;;;;;;;5.50;3.50;;;8.40;99.90;;;;;;5017706;28;20424;-72
2021/12/13 07:40:21;;;;;;;4.93;3.10;;;8.40;99.90;;;;;;5000663;28;20409;-72
2021/12/13 07:43:28;;;;;;;5.17;3.70;;;8.40;99.90;;;;;;5017268;28;20437;-73
2021/12/13 07:45:54;;;;;;;4.10;3.20;;;8.40;99.90;;;;;;4984493;28;20421;-72
2021/12/13 07:48:25;;;;;;;7.70;4.23;;;8.50;99.90;;;;;;5001253;28;20433;-71
2021/12/13 07:51:11;;;;;;;9.83;3.20;;;8.50;99.90;;;;;;4999868;28;20175;-74
2021/12/13 07:53:58;;;;;;;7.97;4.43;;;8.50;99.90;;;;;;4990701;28;20820;-73
2021/12/13 07:56:36;;;;;;;6.90;3.87;;;8.50;99.90;;;;;;4999110;28;20897;-75
2021/12/13 07:59:02;;;;;;;6.10;3.90;;;8.50;99.90;;;;;;4981202;28;20502;-75
2021/12/13 08:01:29;;;;;;;10.73;4.20;;;8.60;99.90;;;;;;4980626;28;20434;-73
2021/12/13 08:04:08;;;;;;;8.80;3.97;;;8.60;99.90;;;;;;4979051;28;20313;-74
2021/12/13 08:06:42;;;;;;;5.97;3.20;;;8.60;99.90;;;;;;4995820;28;20457;-74
2021/12/13 08:09:13;;;;;;;4.80;3.23;;;8.60;99.90;;;;;;5006233;28;20417;-74
2021/12/13 08:11:46;;;;;;;6.50;3.77;;;8.70;99.90;;;;;;5006104;28;20997;-74
2021/12/13 08:14:14;;;;;;;6.27;4.07;;;8.70;99.90;;;;;;5006938;28;20463;-73
2021/12/13 08:16:48;;;;;;;8.17;3.80;;;8.80;99.90;;;;;;4995612;28;20433;-75
2021/12/13 08:19:21;;;;;;;7.10;3.30;;;8.80;99.90;;;;;;4984304;28;20427;-75
2021/12/13 08:21:57;;;;;;;5.33;3.27;;;8.80;99.90;;;;;;5012243;28;20792;-74
2021/12/13 08:24:28;;;;;;;5.93;3.00;;;8.90;99.90;;;;;;4993158;28;20422;-74
2021/12/13 08:27:06;;;;;;;4.77;2.83;;;8.90;99.90;;;;;;5015633;28;20429;-74
2021/12/13 08:29:37;;;;;;;2.00;1.80;;;8.90;99.90;;;;;;5014616;28;20421;-75
2021/12/13 08:32:16;;;;;;;2.80;2.00;;;9.00;99.90;;;;;;5013845;28;20444;-76
2021/12/13 08:34:53;;;;;;;6.83;4.67;;;9.00;99.90;;;;;;4985666;28;20468;-75
2021/12/13 08:37:29;;;;;;;4.57;3.20;;;9.00;99.90;;;;;;5014786;28;20472;-75
2021/12/13 08:40:02;;;;;;;11.20;2.20;;;9.10;99.90;;;;;;4988269;28;20948;-74
2021/12/13 08:42:31;;;;;;;6.80;2.70;;;9.10;99.90;;;;;;4994557;28;20430;-75
2021/12/13 08:45:16;;;;;;;4.83;2.60;;;9.20;99.90;;;;;;4992422;28;20438;-74
2021/12/13 08:47:49;;;;;;;5.60;2.07;;;9.20;99.90;;;;;;4993775;28;20421;-74
2021/12/13 08:50:36;;;;;;;5.43;2.13;;;9.20;99.90;;;;;;5012650;28;20433;-74
2021/12/13 08:53:16;;;;;;;2.73;1.80;;;9.30;99.90;;;;;;5014097;28;20441;-75
2021/12/13 08:55:55;;;;;;;2.20;1.57;;;9.30;99.90;;;;;;5013662;28;20416;-75
2021/12/13 08:58:22;;;;;;;4.40;2.13;;;9.40;99.90;;;;;;4996388;28;20505;-74
2021/12/13 09:00:59;;;;;;;2.77;1.70;;;9.40;99.90;;;;;;5014512;28;20433;-73
2021/12/13 09:03:37;;;;;;;2.93;1.90;;;9.40;99.90;;;;;;5014344;28;20449;-73
2021/12/13 09:06:11;;;;;;;3.03;1.70;;;9.50;99.90;;;;;;5014060;28;20418;-75
2021/12/13 09:08:48;;;;;;;4.03;2.80;;;9.50;99.90;;;;;;5015309;28;20408;-75
2021/12/13 09:11:24;;;;;;;2.77;1.70;;;9.60;99.90;;;;;;5014529;28;20398;-73
2021/12/13 09:13:57;;;;;;;3.37;2.13;;;9.60;99.90;;;;;;5014168;28;20864;-74
2021/12/13 09:16:56;;;;;;;5.10;2.77;;;9.70;99.90;;;;;;4996867;28;20807;-74
2021/12/13 09:19:27;;;;;;;3.50;2.20;;;9.80;99.90;;;;;;4985264;28;20439;-74
2021/12/13 09:22:01;;;;;;;5.03;3.00;;;9.90;99.90;;;;;;4995604;28;20433;-75
2021/12/13 09:24:38;;;;;;;11.40;2.93;;;10.00;99.90;;;;;;5017138;28;20421;-74
2021/12/13 09:27:18;;;;;;;3.90;2.90;;;10.10;99.90;;;;;;4999358;28;20733;-73
2021/12/13 09:30:11;;;;;;;7.10;3.20;;;10.10;99.90;;;;;;5003591;28;20426;-74
2021/12/13 09:32:43;;;;;;;4.50;3.70;;;10.20;99.90;;;;;;5004411;28;20530;-75
2021/12/13 09:35:55;;;;;;;6.03;3.70;;;10.30;99.90;;;;;;5009765;28;20464;-75
2021/12/13 09:38:27;;;;;;;7.20;2.90;;;10.40;99.90;;;;;;4948498;29;20909;-73
2021/12/13 09:41:11;;;;;;;5.23;3.00;;;10.40;99.90;;;;;;4994029;28;20418;-75
2021/12/13 09:43:52;;;;;;;5.60;3.30;;;10.40;99.70;;;;;;5000814;28;20445;-74
2021/12/13 09:46:32;;;;;;;7.00;3.27;;;10.40;99.90;;;;;;4993273;28;20425;-74
2021/12/13 09:49:06;;;;;;;5.60;3.17;;;10.40;99.90;;;;;;4980630;28;20425;-74
2021/12/13 09:52:01;;;;;;;5.40;3.70;;;10.40;99.90;;;;;;4997838;28;20487;-72
2021/12/13 09:54:43;;;;;;;8.97;3.97;;;10.40;99.90;;;;;;5009437;28;20545;-73
2021/12/13 09:57:19;;;;;;;7.73;3.50;;;10.40;99.90;;;;;;5009768;28;20406;-75
2021/12/13 09:59:49;;;;;;;9.60;4.43;;;10.60;99.90;;;;;;5017297;28;20394;-73
2021/12/13 10:02:28;;;;;;;5.53;4.17;;;10.70;99.20;;;;;;5006126;28;20445;-75
2021/12/13 10:04:54;;;;;;;8.20;5.17;;;10.80;98.80;;;;;;4995041;28;20937;-76
2021/12/13 10:07:26;;;;;;;5.40;3.07;;;10.80;98.60;;;;;;4996153;28;20410;-74
2021/12/13 10:09:56;;;;;;;5.63;3.40;;;10.80;98.60;;;;;;5013330;28;20528;-74
2021/12/13 10:12:34;;;;;;;3.57;3.27;;;10.80;98.50;;;;;;5012691;28;20541;-75
2021/12/13 10:15:09;;;;;;;4.50;3.03;;;10.70;98.40;;;;;;5013584;28;20449;-74
2021/12/13 10:17:39;;;;;;;13.77;3.50;;;10.70;98.50;;;;;;5010739;28;20477;-74
2021/12/13 10:20:18;;;;;;;6.17;3.33;;;10.70;98.70;;;;;;5001644;28;20473;-73
2021/12/13 10:22:44;;;;;;;4.57;3.30;;;10.80;98.60;;;;;;4994687;28;20863;-75
2021/12/13 10:25:20;;;;;;;5.27;3.43;;;10.80;99.10;;;;;;4992024;28;20480;-73
2021/12/13 10:27:47;;;;;;;6.50;3.27;;;10.80;98.90;;;;;;5001393;28;20500;-73
2021/12/13 10:30:44;;;;;;;4.43;3.00;;;10.90;98.80;;;;;;4983883;28;20426;-75
2021/12/13 10:33:11;;;;;;;6.03;4.10;;;10.90;98.70;;;;;;4970882;28;20447;-73
2021/12/13 10:35:40;;;;;;;6.93;3.40;;;10.90;98.90;;;;;;5010963;28;20418;-75
2021/12/13 10:38:16;;;;;;;6.97;4.27;;;10.90;98.70;;;;;;5015070;28;20501;-75
2021/12/13 10:40:43;;;;;;;4.70;3.30;;;11.00;98.90;;;;;;4996824;28;20417;-74
2021/12/13 10:43:12;;;;;;;6.27;3.00;;;11.00;98.60;;;;;;4995605;28;20438;-75
2021/12/13 10:45:48;;;;;;;6.17;2.77;;;11.00;98.40;;;;;;4986205;28;20435;-75
2021/12/13 10:48:17;;;;;;;5.53;3.23;;;11.10;98.50;;;;;;5009019;28;20468;-74
2021/12/13 10:50:49;;;;;;;4.60;2.60;;;11.00;98.20;;;;;;4998800;28;20515;-74
2021/12/13 10:53:19;;;;;;;3.60;2.70;;;11.00;97.90;;;;;;5011956;28;20434;-75
2021/12/13 10:55:51;;;;;;;4.90;2.70;;;10.90;97.80;;;;;;5008547;28;20414;-76
2021/12/13 10:58:22;;;;;;;5.23;2.80;;;10.90;98.50;;;;;;5008720;28;20426;-74
2021/12/13 11:01:01;;;;;;;4.30;2.70;;;11.00;97.90;;;;;;5015001;28;20415;-73
2021/12/13 11:03:30;;;;;;;3.93;2.40;;;11.00;97.10;;;;;;5003671;28;20441;-75
2021/12/13 11:05:57;;;;;;;7.23;2.40;;;11.00;97.20;;;;;;5006699;28;20410;-73
2021/12/13 11:08:24;;;;;;;4.00;2.23;;;11.00;97.00;;;;;;4987025;28;20426;-75
2021/12/13 11:11:00;;;;;;;3.40;2.17;;;11.00;96.80;;;;;;4988526;28;20647;-74
2021/12/13 11:13:29;;;;;;;6.80;4.30;;;11.00;96.50;;;;;;5040079;22;20484;-87
2021/12/13 11:16:06;;;;;;;5.67;3.17;;;11.00;96.60;;;;;;5043173;28;20417;-85
2021/12/13 11:18:33;;;;;;;5.50;2.60;;;11.10;96.70;;;;;;5045907;28;20412;-86
2021/12/13 11:21:10;;;;;;;4.60;2.80;;;11.10;96.30;;;;;;5032985;28;20445;-87
2021/12/13 11:23:44;;;;;;;6.10;2.63;;;11.10;96.00;;;;;;5017545;28;20421;-87
2021/12/13 11:26:20;;;;;;;3.60;2.90;;;11.20;95.80;;;;;;5038245;28;20497;-86
2021/12/13 11:29:14;;;;;;;4.33;2.77;;;11.30;95.60;;;;;;5009520;28;20453;-85
2021/12/13 11:31:55;;;;;;;5.07;3.17;;;11.30;95.10;;;;;;5034979;28;20583;-84
2021/12/13 11:34:51;;;;;;;3.17;2.17;;;11.30;95.00;;;;;;5045565;28;20449;-82
2021/12/13 11:37:35;;;;;;;6.40;3.60;;;11.30;94.50;;;;;;5012050;28;20394;-84
2021/12/13 11:40:39;;;;;;;6.67;3.30;;;11.20;94.20;;;;;;5004111;28;20893;-84
2021/12/13 11:43:23;;;;;;;3.90;2.87;;;11.20;94.40;;;;;;5019608;28;20452;-87
2021/12/13 11:46:11;;;;;;;3.63;2.23;;;11.10;94.40;;;;;;5024224;28;20491;-86
2021/12/13 11:49:14;;;;;;;5.90;2.77;;;11.10;93.60;;;;;;5006711;28;20419;-87
2021/12/13 11:51:58;;;;;;;4.10;2.87;;;11.00;94.00;;;;;;4999221;28;20444;-87
2021/12/13 11:54:57;;;;;;;3.90;2.40;;;11.10;94.40;;;;;;5009188;28;20553;-86
2021/12/13 11:57:55;;;;;;;7.37;2.83;;;11.20;94.50;;;;;;5013210;28;20427;-84
2021/12/13 12:00:40;;;;;;;2.43;1.80;;;11.20;93.90;;;;;;5021028;28;20769;-86
2021/12/13 12:04:08;;;;;;;2.83;2.23;;;11.20;93.60;;;;;;5041870;28;20434;-83
2021/12/13 12:07:11;;;;;;;2.30;1.70;;;11.20;93.60;;;;;;5022200;28;20497;-84
2021/12/13 12:10:08;;;;;;;2.43;2.10;;;11.20;93.50;;;;;;5018156;28;20472;-87
2021/12/13 12:13:11;;;;;;;4.63;2.20;;;11.30;93.00;;;;;;5027843;28;20441;-85
2021/12/13 12:15:43;;;;;;;4.40;1.87;;;11.20;92.90;;;;;;5016904;28;20430;-85
2021/12/13 12:18:20;;;;;;;2.33;2.00;;;11.20;93.40;;;;;;5038899;28;20422;-84
2021/12/13 12:21:10;;;;;;;9.53;3.70;;;11.20;93.50;;;;;;5049332;28;20444;-87
2021/12/13 12:23:43;;;;;;;3.67;2.20;;;11.30;93.30;;;;;;5027358;28;20409;-85
2021/12/13 12:26:16;;;;;;;7.23;2.20;;;11.30;92.70;;;;;;5025436;28;20425;-85
2021/12/13 12:28:51;;;;;;;14.77;6.70;;;11.20;93.20;;;;;;5028270;28;20413;-88
2021/12/13 12:31:54;;;;;;;4.40;3.10;;;11.30;93.10;;;;;;5029226;28;20470;-84
2021/12/13 12:34:23;;;;;;;5.87;3.00;;;11.20;93.00;;;;;;4990754;28;20458;-86
2021/12/13 12:36:58;;;;;;;4.50;1.80;;;11.20;93.00;;;;;;5006035;28;20419;-87
2021/12/13 12:39:44;;;;;;;3.17;1.60;;;11.20;92.80;;;;;;4989904;28;20434;-87
2021/12/13 12:42:46;;;;;;;2.60;1.53;;;11.20;92.90;;;;;;4992096;28;20449;-85
2021/12/13 12:45:15;;;;;;;1.77;1.00;;;11.20;92.90;;;;;;5017609;28;20449;-87
2021/12/13 12:47:50;;;;;;;2.63;1.23;;;11.10;93.00;;;;;;5020353;28;20414;-85
2021/12/13 12:50:26;;;;;;;1.47;0.90;;;11.10;92.60;;;;;;5023601;28;20441;-85
2021/12/13 12:53:04;;;;;;;3.10;1.63;;;11.00;91.20;;;;;;5023618;28;20428;-86
2021/12/13 12:55:55;;;;;;;2.07;1.43;;;10.90;91.40;;;;;;5023551;28;20519;-87
2021/12/13 12:58:26;;;;;;;3.27;1.23;;;10.90;91.70;;;;;;5008347;28;20418;-85
2021/12/13 13:00:54;;;;;;;2.60;1.53;;;10.80;91.40;;;;;;5044620;28;20457;-86
2021/12/13 13:03:30;;;;;;;4.50;1.33;;;10.80;91.10;;;;;;5031480;28;20445;-86
2021/12/13 13:06:09;;;;;;;1.73;1.27;;;10.70;90.60;;;;;;5013034;28;20429;-87
2021/12/13 13:08:42;;;;;;;4.03;1.37;;;10.80;91.30;;;;;;5033906;28;20492;-85
2021/12/13 13:11:27;;;;;;;4.90;1.30;;;10.70;91.10;;;;;;5041888;28;20447;-85
2021/12/13 13:14:10;;;;;;;4.20;2.13;;;10.70;91.60;;;;;;4997994;28;20462;-84
2021/12/13 13:16:41;;;;;;;2.70;1.30;;;10.70;91.40;;;;;;5018734;28;20448;-85
2021/12/13 13:19:09;;;;;;;1.53;1.20;;;10.70;91.50;;;;;;5027108;28;20590;-84
2021/12/13 13:21:44;;;;;;;4.70;1.90;;;10.70;91.40;;;;;;5024658;28;20513;-85
2021/12/13 13:24:12;;;;;;;2.93;1.60;;;10.70;91.20;;;;;;5026573;28;20883;-86
2021/12/13 13:26:42;;;;;;;6.53;1.80;;;10.70;91.10;;;;;;5026726;28;20432;-87
2021/12/13 13:29:12;;;;;;;3.23;1.67;;;10.70;91.00;;;;;;5037007;28;20486;-86
2021/12/13 13:31:59;;;;;;;3.40;1.70;;;10.70;91.30;;;;;;5012734;28;20438;-88
2021/12/13 13:34:35;;;;;;;3.87;1.60;;;10.70;91.10;;;;;;5012219;28;20476;-86
2021/12/13 13:37:51;;;;;;;4.37;1.63;;;10.70;90.30;;;;;;5039276;28;20433;-84
2021/12/13 13:40:23;;;;;;;2.27;1.30;;;10.70;91.10;;;;;;5032890;28;20500;-86
2021/12/13 13:42:59;;;;;;;3.10;1.70;;;10.70;91.10;;;;;;5033452;28;20399;-85
2021/12/13 13:45:38;;;;;;;10.97;6.67;;;10.80;90.80;;;;;;5043812;28;20408;-86
2021/12/13 13:48:13;;;;;;;5.20;1.77;;;10.80;90.90;;;;;;5033314;28;20417;-83